sensor_id;sensor_type;location;lat;lon;timestamp;pressure;altitude;pressure_sealevel;temperature;humidity
19831;BME280;10076;52.008;4.708;2022-08-25T00:01:22;101728.06;;;25.73;100.00
19831;BME280;10076;52.008;4.708;2022-08-25T00:03:48;101729.91;;;25.72;100.00
19831;BME280;10076;52.008;4.708;2022-08-25T00:06:14;101723.34;;;25.67;100.00
19831;BME280;10076;52.008;4.708;2022-08-25T00:08:40;101726.34;;;25.72;100.00
19831;BME280;10076;52.008;4.708;2022-08-25T00:11:14;101725.88;;;25.68;100.00
19831;BME280;10076;52.008;4.708;2022-08-25T00:13:41;101722.34;;;25.68;100.00
19831;BME280;10076;52.008;4.708;2022-08-25T00:16:11;101725.59;;;25.63;100.00
19831;BME280;10076;52.008;4.708;2022-08-25T00:18:38;101717.47;;;25.63;100.00
19831;BME280;10076;52.008;4.708;2022-08-25T00:21:04;101710.94;;;25.58;100.00
19831;BME280;10076;52.008;4.708;2022-08-25T00:23:30;101724.06;;;25.46;100.00
19831;BME280;10076;52.008;4.708;2022-08-25T00:25:56;101720.13;;;25.49;100.00
19831;BME280;10076;52.008;4.708;2022-08-25T00:28:21;101721.91;;;25.42;100.00
19831;BME280;10076;52.008;4.708;2022-08-25T00:30:47;101710.00;;;25.51;100.00
19831;BME280;10076;52.008;4.708;2022-08-25T00:33:13;101724.53;;;25.50;100.00
19831;BME280;10076;52.008;4.708;2022-08-25T00:35:39;101717.09;;;25.52;100.00
19831;BME280;10076;52.008;4.708;2022-08-25T00:38:05;101717.53;;;25.41;100.00
19831;BME280;10076;52.008;4.708;2022-08-25T00:40:31;101720.28;;;25.33;100.00
19831;BME280;10076;52.008;4.708;2022-08-25T00:42:56;101716.44;;;25.27;100.00
19831;BME280;10076;52.008;4.708;2022-08-25T00:45:22;101720.00;;;25.28;100.00
19831;BME280;10076;52.008;4.708;2022-08-25T00:47:48;101718.19;;;25.20;100.00
19831;BME280;10076;52.008;4.708;2022-08-25T00:50:13;101713.13;;;25.17;100.00
19831;BME280;10076;52.008;4.708;2022-08-25T00:52:43;101710.19;;;25.27;100.00
19831;BME280;10076;52.008;4.708;2022-08-25T00:57:56;101702.63;;;25.22;100.00
19831;BME280;10076;52.008;4.708;2022-08-25T01:00:49;101701.88;;;25.28;100.00
19831;BME280;10076;52.008;4.708;2022-08-25T01:03:17;101698.06;;;25.23;100.00
19831;BME280;10076;52.008;4.708;2022-08-25T01:05:44;101698.72;;;25.25;100.00
19831;BME280;10076;52.008;4.708;2022-08-25T01:08:11;101696.09;;;25.17;100.00
19831;BME280;10076;52.008;4.708;2022-08-25T01:10:39;101698.31;;;25.06;100.00
19831;BME280;10076;52.008;4.708;2022-08-25T01:13:11;101699.84;;;25.08;100.00
19831;BME280;10076;52.008;4.708;2022-08-25T01:15:38;101697.19;;;25.00;100.00
19831;BME280;10076;52.008;4.708;2022-08-25T01:18:04;101693.44;;;25.09;100.00
19831;BME280;10076;52.008;4.708;2022-08-25T01:20:30;101686.88;;;25.04;100.00
19831;BME280;10076;52.008;4.708;2022-08-25T01:22:57;101689.56;;;25.04;100.00
19831;BME280;10076;52.008;4.708;2022-08-25T01:25:50;101698.00;;;25.09;100.00
19831;BME280;10076;52.008;4.708;2022-08-25T01:28:19;101695.13;;;25.02;100.00
19831;BME280;10076;52.008;4.708;2022-08-25T01:30:45;101695.84;;;24.96;100.00
19831;BME280;10076;52.008;4.708;2022-08-25T01:33:10;101697.97;;;24.86;100.00
19831;BME280;10076;52.008;4.708;2022-08-25T01:35:37;101697.34;;;24.99;100.00
19831;BME280;10076;52.008;4.708;2022-08-25T01:38:04;101697.72;;;24.96;100.00
19831;BME280;10076;52.008;4.708;2022-08-25T01:40:30;101701.44;;;24.95;100.00
19831;BME280;10076;52.008;4.708;2022-08-25T01:45:31;101691.34;;;24.89;100.00
19831;BME280;10076;52.008;4.708;2022-08-25T01:47:56;101690.81;;;24.93;100.00
19831;BME280;10076;52.008;4.708;2022-08-25T01:50:22;101689.31;;;24.91;100.00
19831;BME280;10076;52.008;4.708;2022-08-25T01:52:53;101689.56;;;24.81;100.00
19831;BME280;10076;52.008;4.708;2022-08-25T01:55:19;101679.16;;;24.70;100.00
19831;BME280;10076;52.008;4.708;2022-08-25T01:57:44;101683.94;;;24.60;100.00
19831;BME280;10076;52.008;4.708;2022-08-25T02:00:11;101682.97;;;24.53;100.00
19831;BME280;10076;52.008;4.708;2022-08-25T02:02:38;101673.59;;;24.64;100.00
19831;BME280;10076;52.008;4.708;2022-08-25T02:05:05;101673.47;;;24.57;100.00
19831;BME280;10076;52.008;4.708;2022-08-25T02:07:31;101678.84;;;24.65;100.00
19831;BME280;10076;52.008;4.708;2022-08-25T02:09:57;101675.00;;;24.60;100.00
19831;BME280;10076;52.008;4.708;2022-08-25T02:12:23;101675.97;;;24.67;100.00
19831;BME280;10076;52.008;4.708;2022-08-25T02:14:48;101671.66;;;24.58;100.00
19831;BME280;10076;52.008;4.708;2022-08-25T02:17:13;101680.28;;;24.53;100.00
19831;BME280;10076;52.008;4.708;2022-08-25T02:19:39;101668.44;;;24.54;100.00
19831;BME280;10076;52.008;4.708;2022-08-25T02:22:04;101667.28;;;24.49;100.00
19831;BME280;10076;52.008;4.708;2022-08-25T02:24:30;101668.00;;;24.43;100.00
19831;BME280;10076;52.008;4.708;2022-08-25T02:26:56;101667.81;;;24.44;100.00
19831;BME280;10076;52.008;4.708;2022-08-25T02:29:22;101668.44;;;24.54;100.00
19831;BME280;10076;52.008;4.708;2022-08-25T02:31:48;101665.28;;;24.43;100.00
19831;BME280;10076;52.008;4.708;2022-08-25T02:34:13;101663.63;;;24.34;100.00
19831;BME280;10076;52.008;4.708;2022-08-25T02:36:39;101665.78;;;24.38;100.00
19831;BME280;10076;52.008;4.708;2022-08-25T02:39:07;101664.28;;;24.44;100.00
19831;BME280;10076;52.008;4.708;2022-08-25T02:41:33;101657.00;;;24.44;100.00
19831;BME280;10076;52.008;4.708;2022-08-25T02:44:00;101650.59;;;24.45;100.00
19831;BME280;10076;52.008;4.708;2022-08-25T02:46:27;101646.25;;;24.37;100.00
19831;BME280;10076;52.008;4.708;2022-08-25T02:48:52;101643.38;;;24.30;100.00
19831;BME280;10076;52.008;4.708;2022-08-25T02:51:19;101637.19;;;24.22;100.00
19831;BME280;10076;52.008;4.708;2022-08-25T02:53:45;101639.75;;;24.15;100.00
19831;BME280;10076;52.008;4.708;2022-08-25T02:56:12;101634.00;;;24.18;100.00
19831;BME280;10076;52.008;4.708;2022-08-25T02:58:38;101635.03;;;24.17;100.00
19831;BME280;10076;52.008;4.708;2022-08-25T03:01:05;101629.16;;;24.14;100.00
19831;BME280;10076;52.008;4.708;2022-08-25T03:03:31;101633.88;;;24.12;100.00
19831;BME280;10076;52.008;4.708;2022-08-25T03:05:57;101623.69;;;24.22;100.00
19831;BME280;10076;52.008;4.708;2022-08-25T03:08:23;101627.88;;;24.24;100.00
19831;BME280;10076;52.008;4.708;2022-08-25T03:10:49;101621.34;;;24.19;100.00
19831;BME280;10076;52.008;4.708;2022-08-25T03:13:14;101621.25;;;24.04;100.00
19831;BME280;10076;52.008;4.708;2022-08-25T03:15:40;101623.25;;;24.10;100.00
19831;BME280;10076;52.008;4.708;2022-08-25T03:18:07;101609.78;;;24.02;100.00
19831;BME280;10076;52.008;4.708;2022-08-25T03:20:32;101618.75;;;24.03;100.00
19831;BME280;10076;52.008;4.708;2022-08-25T03:23:00;101614.34;;;24.02;100.00
19831;BME280;10076;52.008;4.708;2022-08-25T03:25:26;101611.34;;;23.97;100.00
19831;BME280;10076;52.008;4.708;2022-08-25T03:28:10;101604.56;;;24.01;100.00
19831;BME280;10076;52.008;4.708;2022-08-25T03:30:35;101603.75;;;23.92;100.00
19831;BME280;10076;52.008;4.708;2022-08-25T03:33:01;101597.47;;;24.00;100.00
19831;BME280;10076;52.008;4.708;2022-08-25T03:35:26;101600.38;;;23.90;100.00
19831;BME280;10076;52.008;4.708;2022-08-25T03:37:56;101590.09;;;23.94;100.00
19831;BME280;10076;52.008;4.708;2022-08-25T03:40:22;101595.84;;;23.91;100.00
19831;BME280;10076;52.008;4.708;2022-08-25T03:42:47;101594.16;;;23.90;100.00
19831;BME280;10076;52.008;4.708;2022-08-25T03:45:14;101584.69;;;23.94;100.00
19831;BME280;10076;52.008;4.708;2022-08-25T03:47:40;101587.25;;;23.87;100.00
19831;BME280;10076;52.008;4.708;2022-08-25T03:50:08;101575.28;;;23.90;100.00
19831;BME280;10076;52.008;4.708;2022-08-25T03:52:35;101576.50;;;23.79;100.00
19831;BME280;10076;52.008;4.708;2022-08-25T03:55:02;101573.91;;;23.86;100.00
19831;BME280;10076;52.008;4.708;2022-08-25T03:57:28;101560.78;;;23.91;100.00
19831;BME280;10076;52.008;4.708;2022-08-25T03:59:54;101566.19;;;23.83;100.00
19831;BME280;10076;52.008;4.708;2022-08-25T04:02:19;101559.97;;;23.82;100.00
19831;BME280;10076;52.008;4.708;2022-08-25T04:04:44;101563.88;;;23.80;100.00
19831;BME280;10076;52.008;4.708;2022-08-25T04:07:10;101570.94;;;23.65;100.00
19831;BME280;10076;52.008;4.708;2022-08-25T04:09:35;101566.88;;;23.69;100.00
19831;BME280;10076;52.008;4.708;2022-08-25T04:12:00;101566.41;;;23.66;100.00
19831;BME280;10076;52.008;4.708;2022-08-25T04:14:26;101558.47;;;23.72;100.00
19831;BME280;10076;52.008;4.708;2022-08-25T04:16:51;101562.72;;;23.59;100.00
19831;BME280;10076;52.008;4.708;2022-08-25T04:19:17;101557.34;;;23.59;100.00
19831;BME280;10076;52.008;4.708;2022-08-25T04:21:42;101557.84;;;23.46;100.00
19831;BME280;10076;52.008;4.708;2022-08-25T04:24:09;101550.94;;;23.52;100.00
19831;BME280;10076;52.008;4.708;2022-08-25T04:26:42;101557.78;;;23.78;100.00
19831;BME280;10076;52.008;4.708;2022-08-25T04:29:09;101551.25;;;23.57;100.00
19831;BME280;10076;52.008;4.708;2022-08-25T04:31:38;101548.75;;;23.55;100.00
19831;BME280;10076;52.008;4.708;2022-08-25T04:34:05;101541.84;;;23.53;100.00
19831;BME280;10076;52.008;4.708;2022-08-25T04:36:31;101550.06;;;23.67;100.00
19831;BME280;10076;52.008;4.708;2022-08-25T04:38:57;101554.44;;;23.60;100.00
19831;BME280;10076;52.008;4.708;2022-08-25T04:41:23;101555.44;;;23.67;100.00
19831;BME280;10076;52.008;4.708;2022-08-25T04:43:50;101558.31;;;23.66;100.00
19831;BME280;10076;52.008;4.708;2022-08-25T04:46:21;101553.19;;;23.32;100.00
19831;BME280;10076;52.008;4.708;2022-08-25T04:48:47;101551.50;;;23.23;100.00
19831;BME280;10076;52.008;4.708;2022-08-25T04:51:16;101549.63;;;23.48;100.00
19831;BME280;10076;52.008;4.708;2022-08-25T04:53:42;101545.25;;;23.39;100.00
19831;BME280;10076;52.008;4.708;2022-08-25T04:56:16;101551.00;;;23.36;100.00
19831;BME280;10076;52.008;4.708;2022-08-25T04:58:42;101556.91;;;23.31;100.00
19831;BME280;10076;52.008;4.708;2022-08-25T05:01:12;101547.75;;;23.40;100.00
19831;BME280;10076;52.008;4.708;2022-08-25T05:03:41;101558.84;;;23.53;100.00
19831;BME280;10076;52.008;4.708;2022-08-25T05:06:07;101562.78;;;23.35;100.00
19831;BME280;10076;52.008;4.708;2022-08-25T05:08:33;101559.41;;;23.41;100.00
19831;BME280;10076;52.008;4.708;2022-08-25T05:11:04;101553.38;;;23.31;100.00
19831;BME280;10076;52.008;4.708;2022-08-25T05:13:29;101553.19;;;23.24;100.00
19831;BME280;10076;52.008;4.708;2022-08-25T05:15:57;101559.22;;;23.34;100.00
19831;BME280;10076;52.008;4.708;2022-08-25T05:18:25;101561.28;;;23.32;100.00
19831;BME280;10076;52.008;4.708;2022-08-25T05:20:52;101558.03;;;23.53;100.00
19831;BME280;10076;52.008;4.708;2022-08-25T05:23:19;101564.97;;;23.39;100.00
19831;BME280;10076;52.008;4.708;2022-08-25T05:25:44;101560.22;;;23.41;100.00
19831;BME280;10076;52.008;4.708;2022-08-25T05:28:10;101567.25;;;23.58;100.00
19831;BME280;10076;52.008;4.708;2022-08-25T05:30:40;101567.13;;;23.52;100.00
19831;BME280;10076;52.008;4.708;2022-08-25T05:33:06;101572.53;;;23.44;100.00
19831;BME280;10076;52.008;4.708;2022-08-25T05:35:31;101572.31;;;23.61;100.00
19831;BME280;10076;52.008;4.708;2022-08-25T05:37:57;101575.41;;;23.50;100.00
19831;BME280;10076;52.008;4.708;2022-08-25T05:40:23;101577.66;;;23.69;100.00
19831;BME280;10076;52.008;4.708;2022-08-25T05:42:49;101572.91;;;23.87;100.00
19831;BME280;10076;52.008;4.708;2022-08-25T05:45:14;101575.28;;;23.90;100.00
19831;BME280;10076;52.008;4.708;2022-08-25T05:47:39;101579.28;;;23.94;100.00
19831;BME280;10076;52.008;4.708;2022-08-25T05:50:06;101578.09;;;23.96;100.00
19831;BME280;10076;52.008;4.708;2022-08-25T05:52:32;101576.91;;;23.99;100.00
19831;BME280;10076;52.008;4.708;2022-08-25T05:54:57;101587.28;;;24.18;100.00
19831;BME280;10076;52.008;4.708;2022-08-25T05:57:22;101589.34;;;24.46;100.00
19831;BME280;10076;52.008;4.708;2022-08-25T05:59:48;101593.25;;;24.43;100.00
19831;BME280;10076;52.008;4.708;2022-08-25T06:02:13;101583.13;;;24.38;100.00
19831;BME280;10076;52.008;4.708;2022-08-25T06:04:57;101583.25;;;24.44;100.00
19831;BME280;10076;52.008;4.708;2022-08-25T06:07:23;101577.63;;;24.53;100.00
19831;BME280;10076;52.008;4.708;2022-08-25T06:09:48;101574.97;;;24.45;100.00
19831;BME280;10076;52.008;4.708;2022-08-25T06:12:15;101573.47;;;24.35;100.00
19831;BME280;10076;52.008;4.708;2022-08-25T06:14:40;101576.97;;;24.51;100.00
19831;BME280;10076;52.008;4.708;2022-08-25T06:17:07;101576.34;;;24.41;100.00
19831;BME280;10076;52.008;4.708;2022-08-25T06:19:32;101574.97;;;24.45;100.00
19831;BME280;10076;52.008;4.708;2022-08-25T06:21:58;101577.03;;;24.43;100.00
19831;BME280;10076;52.008;4.708;2022-08-25T06:24:25;101570.78;;;24.35;100.00
19831;BME280;10076;52.008;4.708;2022-08-25T06:26:51;101567.56;;;24.39;100.00
19831;BME280;10076;52.008;4.708;2022-08-25T06:29:17;101562.84;;;24.41;100.00
19831;BME280;10076;52.008;4.708;2022-08-25T06:31:42;101566.69;;;24.47;100.00
19831;BME280;10076;52.008;4.708;2022-08-25T06:34:08;101569.44;;;24.39;100.00
19831;BME280;10076;52.008;4.708;2022-08-25T06:36:34;101565.72;;;24.62;100.00
19831;BME280;10076;52.008;4.708;2022-08-25T06:38:59;101571.31;;;24.61;100.00
19831;BME280;10076;52.008;4.708;2022-08-25T06:41:24;101575.53;;;24.63;100.00
19831;BME280;10076;52.008;4.708;2022-08-25T06:43:50;101570.53;;;24.52;100.00
19831;BME280;10076;52.008;4.708;2022-08-25T06:46:18;101573.50;;;24.65;100.00
19831;BME280;10076;52.008;4.708;2022-08-25T06:48:44;101576.78;;;24.75;100.00
19831;BME280;10076;52.008;4.708;2022-08-25T06:51:12;101577.97;;;24.73;100.00
19831;BME280;10076;52.008;4.708;2022-08-25T06:53:37;101574.59;;;24.71;100.00
19831;BME280;10076;52.008;4.708;2022-08-25T06:56:03;101577.66;;;24.90;100.00
19831;BME280;10076;52.008;4.708;2022-08-25T06:58:29;101579.94;;;25.01;100.00
19831;BME280;10076;52.008;4.708;2022-08-25T07:00:54;101579.38;;;25.06;100.00
19831;BME280;10076;52.008;4.708;2022-08-25T07:03:20;101579.56;;;25.04;100.00
19831;BME280;10076;52.008;4.708;2022-08-25T07:05:52;101577.84;;;25.11;100.00
19831;BME280;10076;52.008;4.708;2022-08-25T07:08:19;101573.00;;;24.99;100.00
19831;BME280;10076;52.008;4.708;2022-08-25T07:10:44;101569.56;;;25.05;100.00
19831;BME280;10076;52.008;4.708;2022-08-25T07:13:10;101571.47;;;25.04;100.00
19831;BME280;10076;52.008;4.708;2022-08-25T07:15:39;101570.59;;;25.26;100.00
19831;BME280;10076;52.008;4.708;2022-08-25T07:18:05;101566.41;;;25.23;100.00
19831;BME280;10076;52.008;4.708;2022-08-25T07:20:33;101567.44;;;25.37;100.00
19831;BME280;10076;52.008;4.708;2022-08-25T07:22:59;101576.69;;;25.42;100.00
19831;BME280;10076;52.008;4.708;2022-08-25T07:25:24;101568.56;;;25.57;100.00
19831;BME280;10076;52.008;4.708;2022-08-25T07:27:49;101576.69;;;25.71;100.00
19831;BME280;10076;52.008;4.708;2022-08-25T07:30:16;101580.44;;;25.84;100.00
19831;BME280;10076;52.008;4.708;2022-08-25T07:32:41;101567.53;;;26.01;100.00
19831;BME280;10076;52.008;4.708;2022-08-25T07:35:07;101566.09;;;26.19;100.00
19831;BME280;10076;52.008;4.708;2022-08-25T07:37:44;101563.53;;;26.32;100.00
19831;BME280;10076;52.008;4.708;2022-08-25T07:40:20;101571.56;;;26.40;100.00
19831;BME280;10076;52.008;4.708;2022-08-25T07:42:51;101580.09;;;26.58;100.00
19831;BME280;10076;52.008;4.708;2022-08-25T07:45:17;101570.81;;;26.67;100.00
19831;BME280;10076;52.008;4.708;2022-08-25T07:47:43;101570.88;;;26.73;100.00
19831;BME280;10076;52.008;4.708;2022-08-25T07:50:10;101570.16;;;26.86;100.00
19831;BME280;10076;52.008;4.708;2022-08-25T07:52:38;101573.25;;;27.04;100.00
19831;BME280;10076;52.008;4.708;2022-08-25T07:55:05;101574.38;;;27.16;100.00
19831;BME280;10076;52.008;4.708;2022-08-25T07:57:32;101570.66;;;27.50;100.00
19831;BME280;10076;52.008;4.708;2022-08-25T07:59:57;101568.41;;;27.54;100.00
19831;BME280;10076;52.008;4.708;2022-08-25T08:02:24;101578.19;;;27.76;100.00
19831;BME280;10076;52.008;4.708;2022-08-25T08:04:51;101576.72;;;27.80;100.00
19831;BME280;10076;52.008;4.708;2022-08-25T08:07:23;101581.28;;;27.73;100.00
19831;BME280;10076;52.008;4.708;2022-08-25T08:09:49;101583.28;;;27.98;100.00
19831;BME280;10076;52.008;4.708;2022-08-25T08:12:15;101585.66;;;28.14;100.00
19831;BME280;10076;52.008;4.708;2022-08-25T08:14:40;101584.47;;;28.29;100.00
19831;BME280;10076;52.008;4.708;2022-08-25T08:17:06;101574.47;;;28.30;100.00
19831;BME280;10076;52.008;4.708;2022-08-25T08:19:32;101582.25;;;28.46;100.00
19831;BME280;10076;52.008;4.708;2022-08-25T08:21:59;101585.41;;;28.75;100.00
19831;BME280;10076;52.008;4.708;2022-08-25T08:24:24;101584.38;;;28.69;100.00
19831;BME280;10076;52.008;4.708;2022-08-25T08:26:49;101578.38;;;28.80;100.00
19831;BME280;10076;52.008;4.708;2022-08-25T08:29:15;101578.78;;;29.03;100.00
19831;BME280;10076;52.008;4.708;2022-08-25T08:31:40;101575.47;;;29.40;100.00
19831;BME280;10076;52.008;4.708;2022-08-25T08:34:06;101568.25;;;29.71;100.00
19831;BME280;10076;52.008;4.708;2022-08-25T08:36:32;101572.81;;;29.84;100.00
19831;BME280;10076;52.008;4.708;2022-08-25T08:38:57;101589.38;;;29.95;100.00
19831;BME280;10076;52.008;4.708;2022-08-25T08:44:18;101587.66;;;30.01;100.00
19831;BME280;10076;52.008;4.708;2022-08-25T08:47:23;101587.34;;;30.21;100.00
19831;BME280;10076;52.008;4.708;2022-08-25T08:55:56;101585.75;;;30.82;100.00
19831;BME280;10076;52.008;4.708;2022-08-25T08:58:26;101589.00;;;31.03;100.00
19831;BME280;10076;52.008;4.708;2022-08-25T09:00:56;101589.06;;;31.21;100.00
19831;BME280;10076;52.008;4.708;2022-08-25T09:03:35;101589.81;;;31.53;100.00
19831;BME280;10076;52.008;4.708;2022-08-25T09:06:10;101586.22;;;31.94;100.00
19831;BME280;10076;52.008;4.708;2022-08-25T09:08:38;101582.84;;;32.28;100.00
19831;BME280;10076;52.008;4.708;2022-08-25T09:11:22;101588.94;;;32.59;100.00
19831;BME280;10076;52.008;4.708;2022-08-25T09:13:57;101571.50;;;32.72;100.00
19831;BME280;10076;52.008;4.708;2022-08-25T09:16:52;101580.06;;;32.64;100.00
19831;BME280;10076;52.008;4.708;2022-08-25T09:24:45;101570.03;;;33.10;100.00
19831;BME280;10076;52.008;4.708;2022-08-25T09:27:27;101573.97;;;33.37;100.00
19831;BME280;10076;52.008;4.708;2022-08-25T09:30:03;101583.09;;;34.11;100.00
19831;BME280;10076;52.008;4.708;2022-08-25T09:32:32;101579.03;;;35.29;87.89
19831;BME280;10076;52.008;4.708;2022-08-25T09:35:00;101583.16;;;36.24;74.55
19831;BME280;10076;52.008;4.708;2022-08-25T09:37:26;101581.59;;;37.12;74.47
19831;BME280;10076;52.008;4.708;2022-08-25T09:39:52;101580.00;;;37.98;67.91
19831;BME280;10076;52.008;4.708;2022-08-25T09:42:18;101581.84;;;38.54;67.44
19831;BME280;10076;52.008;4.708;2022-08-25T09:44:45;101572.00;;;38.92;60.02
19831;BME280;10076;52.008;4.708;2022-08-25T09:47:21;101573.09;;;39.36;57.29
19831;BME280;10076;52.008;4.708;2022-08-25T09:49:56;101580.56;;;39.16;60.65
19831;BME280;10076;52.008;4.708;2022-08-25T09:55:38;101573.34;;;39.59;56.47
19831;BME280;10076;52.008;4.708;2022-08-25T09:57:50;101561.47;;;39.29;57.20
19831;BME280;10076;52.008;4.708;2022-08-25T10:02:51;101561.16;;;37.80;63.58
19831;BME280;10076;52.008;4.708;2022-08-25T10:05:25;101553.19;;;37.37;66.08
19831;BME280;10076;52.008;4.708;2022-08-25T10:07:54;101555.19;;;37.52;69.75
19831;BME280;10076;52.008;4.708;2022-08-25T10:10:42;101559.47;;;37.79;63.69
19831;BME280;10076;52.008;4.708;2022-08-25T10:13:14;101549.72;;;38.13;63.95
19831;BME280;10076;52.008;4.708;2022-08-25T10:15:39;101556.50;;;38.62;64.07
19831;BME280;10076;52.008;4.708;2022-08-25T10:20:39;101548.41;;;38.30;58.96
19831;BME280;10076;52.008;4.708;2022-08-25T10:23:10;101544.06;;;37.78;62.69
19831;BME280;10076;52.008;4.708;2022-08-25T10:25:41;101538.81;;;37.35;68.49
19831;BME280;10076;52.008;4.708;2022-08-25T10:31:12;101526.00;;;36.83;67.00
19831;BME280;10076;52.008;4.708;2022-08-25T10:33:50;101521.97;;;36.64;67.50
19831;BME280;10076;52.008;4.708;2022-08-25T10:39:00;101520.88;;;36.97;65.22
19831;BME280;10076;52.008;4.708;2022-08-25T10:41:44;101519.19;;;36.91;67.11
19831;BME280;10076;52.008;4.708;2022-08-25T11:05:27;101520.91;;;50.12;30.31
19831;BME280;10076;52.008;4.708;2022-08-25T11:07:50;101526.22;;;51.23;29.61
19831;BME280;10076;52.008;4.708;2022-08-25T11:10:23;101515.47;;;51.74;26.15
19831;BME280;10076;52.008;4.708;2022-08-25T11:12:53;101513.31;;;52.36;26.92
19831;BME280;10076;52.008;4.708;2022-08-25T11:15:24;101521.63;;;52.29;25.70
19831;BME280;10076;52.008;4.708;2022-08-25T11:17:55;101508.00;;;52.50;24.68
19831;BME280;10076;52.008;4.708;2022-08-25T11:20:27;101507.00;;;52.99;23.90
19831;BME280;10076;52.008;4.708;2022-08-25T11:23:20;101512.59;;;53.41;23.78
19831;BME280;10076;52.008;4.708;2022-08-25T11:25:51;101508.56;;;53.90;24.60
19831;BME280;10076;52.008;4.708;2022-08-25T11:28:25;101492.09;;;53.95;22.88
19831;BME280;10076;52.008;4.708;2022-08-25T11:30:57;101502.84;;;55.50;23.31
19831;BME280;10076;52.008;4.708;2022-08-25T11:33:24;101497.81;;;55.33;22.11
19831;BME280;10076;52.008;4.708;2022-08-25T11:36:03;101499.19;;;55.53;22.68
19831;BME280;10076;52.008;4.708;2022-08-25T11:41:32;101489.38;;;57.14;21.48
19831;BME280;10076;52.008;4.708;2022-08-25T11:50:06;101482.22;;;55.60;20.57
19831;BME280;10076;52.008;4.708;2022-08-25T11:55:10;101460.91;;;56.82;19.64
19831;BME280;10076;52.008;4.708;2022-08-25T11:57:37;101468.56;;;56.64;19.79
19831;BME280;10076;52.008;4.708;2022-08-25T12:00:47;101472.38;;;57.24;20.24
19831;BME280;10076;52.008;4.708;2022-08-25T12:02:53;101474.25;;;58.00;19.17
19831;BME280;10076;52.008;4.708;2022-08-25T12:10:22;101461.25;;;57.96;18.55
19831;BME280;10076;52.008;4.708;2022-08-25T12:13:23;101463.78;;;58.72;18.60
19831;BME280;10076;52.008;4.708;2022-08-25T12:18:17;101459.78;;;59.97;18.18
19831;BME280;10076;52.008;4.708;2022-08-25T12:25:53;101439.00;;;59.16;16.47
19831;BME280;10076;52.008;4.708;2022-08-25T12:31:05;101433.03;;;58.43;17.03
19831;BME280;10076;52.008;4.708;2022-08-25T12:36:27;101430.97;;;59.04;16.49
19831;BME280;10076;52.008;4.708;2022-08-25T12:39:08;101420.88;;;59.37;17.06
19831;BME280;10076;52.008;4.708;2022-08-25T12:41:52;101419.13;;;59.50;16.46
19831;BME280;10076;52.008;4.708;2022-08-25T12:44:38;101421.31;;;59.35;16.29
19831;BME280;10076;52.008;4.708;2022-08-25T12:47:23;101416.91;;;58.80;16.26
19831;BME280;10076;52.008;4.708;2022-08-25T12:53:08;101412.47;;;60.26;16.34
19831;BME280;10076;52.008;4.708;2022-08-25T12:55:37;101423.19;;;60.75;15.91
19831;BME280;10076;52.008;4.708;2022-08-25T12:58:05;101407.66;;;60.20;15.71
19831;BME280;10076;52.008;4.708;2022-08-25T13:01:09;101401.66;;;59.04;16.59
19831;BME280;10076;52.008;4.708;2022-08-25T13:03:59;101391.91;;;55.62;17.37
19831;BME280;10076;52.008;4.708;2022-08-25T13:12:05;101380.63;;;53.70;18.86
19831;BME280;10076;52.008;4.708;2022-08-25T13:14:36;101370.22;;;51.99;20.16
19831;BME280;10076;52.008;4.708;2022-08-25T13:17:02;101373.72;;;50.20;21.20
19831;BME280;10076;52.008;4.708;2022-08-25T13:19:28;101364.47;;;48.08;21.74
19831;BME280;10076;52.008;4.708;2022-08-25T13:21:54;101347.25;;;46.62;23.32
19831;BME280;10076;52.008;4.708;2022-08-25T13:24:25;101347.16;;;46.00;24.23
19831;BME280;10076;52.008;4.708;2022-08-25T13:27:21;101352.69;;;45.40;25.14
19831;BME280;10076;52.008;4.708;2022-08-25T13:29:58;101345.81;;;44.61;25.76
19831;BME280;10076;52.008;4.708;2022-08-25T13:32:32;101346.16;;;44.15;26.37
19831;BME280;10076;52.008;4.708;2022-08-25T13:37:41;101336.19;;;42.32;28.74
19831;BME280;10076;52.008;4.708;2022-08-25T13:42:49;101336.34;;;41.30;30.82
19831;BME280;10076;52.008;4.708;2022-08-25T13:45:24;101330.91;;;41.20;30.58
19831;BME280;10076;52.008;4.708;2022-08-25T13:47:51;101334.00;;;40.67;30.45
19831;BME280;10076;52.008;4.708;2022-08-25T13:52:47;101335.72;;;41.14;32.28
19831;BME280;10076;52.008;4.708;2022-08-25T13:55:20;101337.56;;;41.61;31.38
19831;BME280;10076;52.008;4.708;2022-08-25T13:57:46;101332.81;;;41.43;32.38
19831;BME280;10076;52.008;4.708;2022-08-25T14:00:11;101329.69;;;40.84;34.21
19831;BME280;10076;52.008;4.708;2022-08-25T14:02:50;101336.03;;;40.56;35.69
19831;BME280;10076;52.008;4.708;2022-08-25T14:05:49;101326.91;;;40.27;40.96
19831;BME280;10076;52.008;4.708;2022-08-25T14:08:30;101321.59;;;40.03;44.12
19831;BME280;10076;52.008;4.708;2022-08-25T14:13:33;101322.50;;;40.22;45.05
19831;BME280;10076;52.008;4.708;2022-08-25T14:16:19;101322.06;;;40.71;43.13
19831;BME280;10076;52.008;4.708;2022-08-25T14:18:56;101319.97;;;40.87;42.06
19831;BME280;10076;52.008;4.708;2022-08-25T14:21:25;101315.41;;;40.44;41.75
19831;BME280;10076;52.008;4.708;2022-08-25T14:23:52;101322.38;;;40.41;43.23
19831;BME280;10076;52.008;4.708;2022-08-25T14:26:18;101308.81;;;40.63;42.05
19831;BME280;10076;52.008;4.708;2022-08-25T14:28:43;101315.06;;;40.79;39.56
19831;BME280;10076;52.008;4.708;2022-08-25T14:31:13;101313.25;;;40.36;45.65
19831;BME280;10076;52.008;4.708;2022-08-25T14:33:51;101312.19;;;39.99;44.16
19831;BME280;10076;52.008;4.708;2022-08-25T14:36:18;101316.66;;;39.56;45.27